Time;durP1;ratioP1;P1;durP2;ratioP2;P2;SDS_P1;SDS_P2;PMS_P1;PMS_P2;Temp;Humidity;BMP_temperature;BMP_pressure;BME280_temperature;BME280_humidity;BME280_pressure;Samples;Min_cycle;Max_cycle;Signal;HPM_P1;HPM_P2
2023/03/08 00:00:04;;;;;;;;;22.50;21.00;;;;;8.03;51.35;99484.13;4997337;28;45413;-67
2023/03/08 00:02:29;;;;;;;;;24.00;22.50;;;;;8.03;51.45;99478.88;4997544;28;45326;-68
2023/03/08 00:04:56;;;;;;;;;20.00;16.25;;;;;8.02;51.55;99484.16;4997267;28;45300;-68
2023/03/08 00:07:24;;;;;;;;;19.50;16.50;;;;;8.00;51.68;99478.97;4996056;28;45643;-68
2023/03/08 00:09:50;;;;;;;;;23.75;19.75;;;;;7.97;51.72;99471.19;5012165;27;45313;-68
2023/03/08 00:12:18;;;;;;;;;22.50;19.00;;;;;7.96;51.59;99464.22;5011364;28;46604;-69
2023/03/08 00:14:44;;;;;;;;;19.50;16.00;;;;;7.94;51.87;99447.72;4993905;27;45568;-69
2023/03/08 00:17:09;;;;;;;;;23.75;19.00;;;;;7.91;51.94;99443.44;4987672;28;46118;-68
2023/03/08 00:19:34;;;;;;;;;20.50;16.00;;;;;7.93;52.01;99461.69;4997077;28;45303;-68
2023/03/08 00:22:00;;;;;;;;;24.00;21.00;;;;;7.90;51.95;99456.53;4996052;28;45363;-68
2023/03/08 00:24:25;;;;;;;;;18.25;15.75;;;;;7.87;52.47;99454.00;4996825;28;45483;-67
2023/03/08 00:26:50;;;;;;;;;23.50;20.75;;;;;7.84;52.40;99446.22;4995605;28;46830;-68
2023/03/08 00:29:16;;;;;;;;;22.75;17.50;;;;;7.84;52.22;99454.09;4996683;28;45246;-68
2023/03/08 00:31:41;;;;;;;;;12.75;12.75;;;;;7.78;52.36;99435.00;4997330;28;45461;-67
2023/03/08 00:34:06;;;;;;;;;22.50;21.25;;;;;7.77;52.41;99438.53;4996904;28;45243;-67
2023/03/08 00:36:32;;;;;;;;;18.00;15.75;;;;;7.79;52.51;99435.88;4996888;28;45429;-68
2023/03/08 00:38:57;;;;;;;;;21.25;20.50;;;;;7.73;52.75;99426.41;5032285;28;45313;-68
2023/03/08 00:41:23;;;;;;;;;26.50;20.00;;;;;7.70;52.79;99428.22;5006411;28;45412;-68
2023/03/08 00:43:49;;;;;;;;;27.25;21.50;;;;;7.70;52.87;99420.38;4996308;27;45318;-68
2023/03/08 00:46:15;;;;;;;;;24.00;19.75;;;;;7.67;52.92;99421.31;4996840;28;46202;-68
2023/03/08 00:48:41;;;;;;;;;21.00;18.75;;;;;7.65;52.91;99408.28;4995131;28;45295;-68
2023/03/08 00:51:07;;;;;;;;;18.25;16.25;;;;;7.61;53.14;99390.06;4997019;28;45481;-68
2023/03/08 00:53:33;;;;;;;;;23.25;20.75;;;;;7.61;53.12;99390.06;4999314;28;45497;-67
2023/03/08 00:55:59;;;;;;;;;23.25;19.50;;;;;7.59;53.15;99389.28;4999570;28;45374;-67
2023/03/08 00:58:27;;;;;;;;;25.50;19.75;;;;;7.54;53.41;99373.69;4999490;28;45253;-67
2023/03/08 01:00:53;;;;;;;;;22.75;18.75;;;;;7.53;53.35;99371.13;4999667;28;45400;-68
2023/03/08 01:03:20;;;;;;;;;24.25;21.25;;;;;7.54;53.53;99357.16;5014701;28;45628;-68
2023/03/08 01:05:49;;;;;;;;;24.75;18.25;;;;;7.49;53.57;99347.63;4999196;28;45437;-68
2023/03/08 01:08:16;;;;;;;;;22.75;20.00;;;;;7.47;53.50;99349.44;4999388;28;45333;-66
2023/03/08 01:10:56;;;;;;;;;22.25;19.50;;;;;7.44;53.57;99333.81;4999529;28;45454;-67
2023/03/08 01:13:24;;;;;;;;;18.75;17.25;;;;;7.45;53.71;99322.47;4992307;27;45450;-67
2023/03/08 01:15:50;;;;;;;;;21.50;18.25;;;;;7.42;53.71;99322.56;4986944;27;46245;-67
2023/03/08 01:18:15;;;;;;;;;23.00;21.00;;;;;7.41;53.89;99315.63;4998292;27;54461;-68
2023/03/08 01:20:41;;;;;;;;;20.25;18.00;;;;;7.40;53.75;99298.22;4999596;28;45315;-67
2023/03/08 01:23:06;;;;;;;;;23.25;18.00;;;;;7.39;53.96;99301.72;4999115;28;45393;-67
2023/03/08 01:25:32;;;;;;;;;17.75;17.75;;;;;7.37;53.86;99300.91;5014067;28;46379;-68
2023/03/08 01:27:57;;;;;;;;;14.50;14.50;;;;;7.38;53.88;99297.38;4999096;28;45334;-67
2023/03/08 01:30:22;;;;;;;;;19.25;14.50;;;;;7.34;54.07;99281.81;4999296;28;45396;-67
2023/03/08 01:32:48;;;;;;;;;21.25;19.50;;;;;7.33;54.38;99275.72;4999230;28;45419;-67
2023/03/08 01:35:13;;;;;;;;;24.00;19.25;;;;;7.32;54.17;99282.72;4999181;28;45975;-67
2023/03/08 01:37:38;;;;;;;;;26.00;22.00;;;;;7.31;54.24;99274.91;4999023;28;45307;-67
2023/03/08 01:40:04;;;;;;;;;18.00;14.25;;;;;7.29;54.38;99256.63;4999330;28;45317;-67
2023/03/08 01:42:31;;;;;;;;;19.75;19.00;;;;;7.26;54.29;99251.50;4986040;28;45319;-67
2023/03/08 01:44:57;;;;;;;;;21.50;20.25;;;;;7.29;54.56;99250.56;4998864;27;45472;-67
2023/03/08 01:47:25;;;;;;;;;19.75;18.00;;;;;7.29;54.45;99253.19;4999023;28;45279;-67
2023/03/08 01:49:53;;;;;;;;;22.25;18.00;;;;;7.24;54.40;99242.00;4998903;28;45253;-67
2023/03/08 01:52:28;;;;;;;;;16.00;15.50;;;;;7.26;54.64;99248.88;4999334;28;45281;-67
2023/03/08 01:54:57;;;;;;;;;21.50;18.75;;;;;7.25;54.51;99238.47;4998799;28;46401;-67
2023/03/08 01:57:28;;;;;;;;;18.50;15.25;;;;;7.25;54.57;99231.50;4999010;28;45219;-67
2023/03/08 01:59:58;;;;;;;;;21.25;18.00;;;;;7.23;54.51;99228.06;4998844;28;45404;-67
2023/03/08 02:02:29;;;;;;;;;22.00;18.75;;;;;7.20;54.65;99214.22;4999027;28;45444;-67
2023/03/08 02:04:54;;;;;;;;;24.75;20.00;;;;;7.23;54.77;99214.13;4997583;28;45442;-67
2023/03/08 02:07:20;;;;;;;;;23.50;18.50;;;;;7.22;54.88;99208.06;4998941;28;45329;-66
2023/03/08 02:09:46;;;;;;;;;23.75;19.00;;;;;7.20;54.96;99203.78;4998661;28;45461;-66
2023/03/08 02:12:12;;;;;;;;;20.75;18.25;;;;;7.22;54.79;99200.22;4998686;28;45451;-67
2023/03/08 02:14:41;;;;;;;;;23.00;18.25;;;;;7.17;55.16;99183.81;4995810;27;46454;-67
2023/03/08 02:17:06;;;;;;;;;20.00;19.00;;;;;7.19;55.53;99178.53;4988795;28;45377;-67
2023/03/08 02:19:41;;;;;;;;;23.00;20.25;;;;;7.19;55.18;99181.16;4998586;28;45336;-67
2023/03/08 02:22:09;;;;;;;;;22.75;19.00;;;;;7.17;55.16;99175.97;4998652;28;45735;-66
2023/03/08 02:24:34;;;;;;;;;28.50;22.00;;;;;7.18;55.33;99161.97;4998361;28;45437;-66
2023/03/08 02:27:05;;;;;;;;;20.25;16.00;;;;;7.17;55.48;99155.06;4998443;28;45345;-65
2023/03/08 02:29:30;;;;;;;;;20.00;19.00;;;;;7.14;55.30;99156.00;4998478;28;45449;-66
2023/03/08 02:31:55;;;;;;;;;20.25;20.00;;;;;7.14;55.42;99150.78;4998508;28;45254;-65
2023/03/08 02:34:21;;;;;;;;;25.00;22.00;;;;;7.15;55.52;99138.56;4998081;28;53026;-64
2023/03/08 02:36:46;;;;;;;;;24.25;19.00;;;;;7.15;55.66;99134.19;4998747;28;45159;-65
2023/03/08 02:39:11;;;;;;;;;27.00;22.00;;;;;7.14;55.55;99114.22;4998145;28;45300;-64
2023/03/08 02:41:37;;;;;;;;;22.75;21.00;;;;;7.13;55.56;99122.94;4998339;28;45294;-64
2023/03/08 02:44:02;;;;;;;;;23.50;19.75;;;;;7.09;55.76;99099.53;4998080;28;46197;-64
2023/03/08 02:46:28;;;;;;;;;25.50;20.00;;;;;7.05;55.96;99077.84;4998243;28;45249;-64
2023/03/08 02:48:53;;;;;;;;;19.75;19.00;;;;;7.05;55.96;99085.69;4998257;28;45522;-64
2023/03/08 02:51:19;;;;;;;;;29.75;21.50;;;;;7.03;56.18;99089.25;4998479;28;45302;-63
2023/03/08 02:53:44;;;;;;;;;25.50;23.00;;;;;7.03;56.34;99079.66;4997985;28;45326;-63
2023/03/08 02:56:10;;;;;;;;;23.25;19.25;;;;;7.01;56.33;99071.00;4998265;28;45316;-63
2023/03/08 02:58:35;;;;;;;;;23.00;20.25;;;;;7.00;56.43;99062.28;4997898;28;45585;-63
2023/03/08 03:01:00;;;;;;;;;21.50;19.75;;;;;6.99;56.67;99051.91;4998285;28;45766;-63
2023/03/08 03:03:26;;;;;;;;;27.50;20.25;;;;;6.97;56.73;99043.25;4997785;28;48304;-64
2023/03/08 03:05:51;;;;;;;;;22.75;16.50;;;;;6.95;56.68;99022.38;4998265;28;45478;-64
2023/03/08 03:08:16;;;;;;;;;23.75;16.50;;;;;6.95;56.96;99026.75;4997001;28;46894;-64
2023/03/08 03:10:41;;;;;;;;;19.50;18.00;;;;;6.93;56.85;99018.09;4997903;28;45322;-64
2023/03/08 03:13:07;;;;;;;;;21.25;18.75;;;;;6.92;56.87;99003.34;4997508;28;46517;-64
2023/03/08 03:15:36;;;;;;;;;20.25;19.00;;;;;6.91;57.05;98978.97;4987827;27;45600;-64
2023/03/08 03:18:01;;;;;;;;;18.25;17.25;;;;;6.87;57.11;98966.91;4996624;28;45487;-65
2023/03/08 03:20:26;;;;;;;;;19.75;18.25;;;;;6.91;57.46;98970.31;4998085;28;45399;-65
2023/03/08 03:22:51;;;;;;;;;23.00;18.00;;;;;6.91;57.38;98958.09;4997525;28;46827;-65
2023/03/08 03:25:17;;;;;;;;;19.00;13.25;;;;;6.91;57.15;98949.41;4997841;28;45355;-65
2023/03/08 03:27:42;;;;;;;;;18.00;16.00;;;;;6.88;57.25;98942.53;4997729;28;45620;-64
2023/03/08 03:30:09;;;;;;;;;20.75;18.00;;;;;6.88;57.33;98958.19;4997715;28;45310;-64
2023/03/08 03:32:35;;;;;;;;;25.00;18.00;;;;;6.88;57.54;98944.25;4997739;28;46386;-63
2023/03/08 03:35:01;;;;;;;;;14.50;12.75;;;;;6.87;57.67;98921.66;4997856;28;45348;-63
2023/03/08 03:37:26;;;;;;;;;23.75;19.00;;;;;6.86;57.64;98922.56;4997794;28;45424;-63
2023/03/08 03:39:51;;;;;;;;;17.75;15.75;;;;;6.82;57.69;98903.53;4997724;28;45290;-62
2023/03/08 03:42:17;;;;;;;;;15.50;15.50;;;;;6.80;57.55;98906.16;4997409;28;45402;-62
2023/03/08 03:44:42;;;;;;;;;17.25;17.00;;;;;6.77;57.91;98887.13;4997667;28;45498;-63
2023/03/08 03:47:07;;;;;;;;;21.00;18.00;;;;;6.79;58.06;98888.81;4997602;28;45161;-63
2023/03/08 03:49:33;;;;;;;;;19.00;16.00;;;;;6.77;57.74;98876.69;4997543;28;45383;-63
2023/03/08 03:51:58;;;;;;;;;18.75;18.75;;;;;6.78;58.09;98880.97;4997479;28;45209;-62
2023/03/08 03:54:23;;;;;;;;;17.25;14.75;;;;;6.77;58.23;98856.66;4995907;28;49654;-63
2023/03/08 03:56:49;;;;;;;;;16.25;13.50;;;;;6.77;57.90;98859.25;4997376;28;45296;-62
2023/03/08 03:59:14;;;;;;;;;15.50;15.50;;;;;6.76;58.27;98851.47;4997547;28;45361;-63
2023/03/08 04:01:40;;;;;;;;;16.75;16.50;;;;;6.74;58.28;98827.16;4997234;28;46062;-62
2023/03/08 04:04:05;;;;;;;;;16.25;16.25;;;;;6.73;58.43;98825.44;4997512;28;45219;-62
2023/03/08 04:06:32;;;;;;;;;16.00;15.00;;;;;6.71;58.32;98822.03;4997198;28;46489;-62
2023/03/08 04:09:14;;;;;;;;;13.25;12.25;;;;;6.71;58.74;98828.09;4997170;28;45452;-61
2023/03/08 04:11:39;;;;;;;;;19.50;16.50;;;;;6.64;58.69;98798.72;4997021;28;45436;-62
2023/03/08 04:14:05;;;;;;;;;16.25;13.25;;;;;6.67;59.15;98800.38;4997220;27;45169;-62
2023/03/08 04:16:36;;;;;;;;;11.25;9.75;;;;;6.67;58.73;98793.41;4982492;27;45227;-61
2023/03/08 04:19:04;;;;;;;;;15.25;12.25;;;;;6.65;58.94;98796.94;4997277;28;45395;-62
2023/03/08 04:21:30;;;;;;;;;12.25;10.25;;;;;6.65;58.89;98782.16;4997059;28;47245;-62
2023/03/08 04:23:56;;;;;;;;;15.00;12.75;;;;;6.65;59.21;98776.06;4996782;28;45447;-62
2023/03/08 04:26:22;;;;;;;;;8.50;6.50;;;;;6.66;59.02;98777.78;4995653;28;45296;-62
2023/03/08 04:28:48;;;;;;;;;16.25;14.75;;;;;6.64;59.25;98774.34;4998729;28;45464;-62
2023/03/08 04:31:15;;;;;;;;;15.50;13.75;;;;;6.67;59.25;98775.13;5000003;28;45287;-62
2023/03/08 04:33:41;;;;;;;;;20.50;12.50;;;;;6.70;59.48;98773.34;5000041;28;45339;-61
2023/03/08 04:36:07;;;;;;;;;13.50;11.00;;;;;6.71;59.12;98775.91;4999899;28;45422;-61
2023/03/08 04:38:32;;;;;;;;;11.25;10.75;;;;;6.70;59.13;98768.13;5000072;27;45435;-61
2023/03/08 04:41:01;;;;;;;;;14.25;8.75;;;;;6.70;59.37;98757.69;4999674;28;46433;-62
2023/03/08 04:43:28;;;;;;;;;11.00;9.25;;;;;6.70;59.46;98755.91;4999549;27;45373;-62
2023/03/08 04:45:53;;;;;;;;;6.50;6.50;;;;;6.70;59.74;98766.34;5015191;28;45387;-62
2023/03/08 04:48:19;;;;;;;;;12.00;10.75;;;;;6.72;59.63;98761.09;4999428;28;45519;-62
2023/03/08 04:50:52;;;;;;;;;9.50;9.50;;;;;6.74;59.72;98768.00;4999713;28;45306;-62
2023/03/08 04:53:17;;;;;;;;;12.75;11.25;;;;;6.75;59.99;98764.44;4999628;28;45411;-62
2023/03/08 04:55:42;;;;;;;;;9.00;9.00;;;;;6.76;59.89;98766.16;5014468;28;55446;-62
2023/03/08 04:58:08;;;;;;;;;9.00;9.00;;;;;6.76;59.89;98749.66;4999397;28;45328;-62
2023/03/08 05:00:33;;;;;;;;;10.75;8.75;;;;;6.76;59.90;98742.66;4999662;28;45758;-62
2023/03/08 05:02:58;;;;;;;;;8.25;8.25;;;;;6.78;59.88;98735.66;4999380;28;50355;-62
2023/03/08 05:05:23;;;;;;;;;9.25;9.25;;;;;6.72;60.15;98724.56;4999693;28;49417;-62
2023/03/08 05:07:49;;;;;;;;;11.50;11.00;;;;;6.82;60.18;98733.81;4999479;28;45532;-62
2023/03/08 05:10:15;;;;;;;;;5.75;5.00;;;;;6.82;60.34;98726.81;4999212;28;53055;-62
2023/03/08 05:12:40;;;;;;;;;10.25;9.25;;;;;6.83;59.93;98715.47;5014304;28;45457;-62
2023/03/08 05:15:06;;;;;;;;;9.00;8.00;;;;;6.81;60.21;98724.25;4998489;27;45328;-62
2023/03/08 05:17:31;;;;;;;;;12.00;9.50;;;;;6.86;60.42;98724.13;5000572;28;45618;-62
2023/03/08 05:19:56;;;;;;;;;10.00;8.50;;;;;6.89;60.57;98726.63;4999242;28;45453;-62
2023/03/08 05:22:22;;;;;;;;;2.75;2.00;;;;;6.91;60.65;98715.22;5014497;28;45271;-62
2023/03/08 05:24:47;;;;;;;;;9.00;8.25;;;;;6.92;60.73;98710.88;4998991;28;52140;-61
2023/03/08 05:27:12;;;;;;;;;5.25;5.00;;;;;6.95;60.63;98702.94;4999114;28;45676;-61
2023/03/08 05:29:38;;;;;;;;;7.00;7.00;;;;;6.94;60.64;98696.88;4999077;28;46204;-62
2023/03/08 05:32:03;;;;;;;;;9.00;8.25;;;;;7.02;61.01;98709.69;4999394;28;45352;-61
2023/03/08 05:34:29;;;;;;;;;4.00;4.00;;;;;7.05;60.81;98682.59;4999427;28;45269;-62
2023/03/08 05:36:54;;;;;;;;;10.00;6.00;;;;;7.08;60.90;98692.94;4999040;28;49998;-62
2023/03/08 05:39:20;;;;;;;;;9.50;6.00;;;;;7.10;61.24;98697.22;5003864;28;46375;-61
2023/03/08 05:41:45;;;;;;;;;6.50;5.75;;;;;7.09;60.84;98677.22;5006470;28;45381;-62
2023/03/08 05:44:10;;;;;;;;;8.75;8.00;;;;;7.12;61.23;98673.69;4999224;27;45145;-62
2023/03/08 05:46:37;;;;;;;;;8.50;5.25;;;;;7.15;60.91;98677.00;4997839;28;45468;-60
2023/03/08 05:49:03;;;;;;;;;7.00;7.00;;;;;7.20;61.26;98682.09;4998834;28;46102;-61
2023/03/08 05:51:28;;;;;;;;;10.00;5.25;;;;;7.22;61.10;98676.81;4998945;28;45355;-62
2023/03/08 05:53:53;;;;;;;;;3.75;3.00;;;;;7.27;61.08;98682.72;4998970;28;45249;-62
2023/03/08 05:56:21;;;;;;;;;7.00;5.25;;;;;7.30;61.18;98680.03;4998871;28;45355;-62
2023/03/08 05:58:47;;;;;;;;;8.00;5.25;;;;;7.32;61.90;98684.31;4986000;28;46412;-62
2023/03/08 06:01:20;;;;;;;;;9.00;8.00;;;;;7.37;61.59;98678.94;4999009;28;45249;-61
2023/03/08 06:03:49;;;;;;;;;10.00;4.75;;;;;7.41;61.54;98680.53;4999180;28;45382;-62
2023/03/08 06:06:15;;;;;;;;;4.25;4.25;;;;;7.43;61.60;98670.00;4997473;28;46193;-62
2023/03/08 06:08:40;;;;;;;;;7.00;6.00;;;;;7.47;61.41;98669.88;4998391;28;46403;-62
2023/03/08 06:11:06;;;;;;;;;12.75;7.25;;;;;7.49;61.58;98678.47;4998372;28;45394;-62
2023/03/08 06:13:32;;;;;;;;;12.25;9.25;;;;;7.50;61.96;98676.75;4998686;28;45520;-62
2023/03/08 06:15:59;;;;;;;;;4.00;4.00;;;;;7.56;61.58;98658.22;4985555;27;45352;-62
2023/03/08 06:18:25;;;;;;;;;6.00;3.00;;;;;7.58;61.72;98671.25;4998791;28;45380;-62
2023/03/08 06:21:02;;;;;;;;;6.00;6.00;;;;;7.63;61.90;98674.56;4998521;28;45316;-62
2023/03/08 06:23:28;;;;;;;;;9.25;8.00;;;;;7.67;61.98;98676.13;4998480;27;45370;-61
2023/03/08 06:25:55;;;;;;;;;11.50;9.00;;;;;7.70;61.79;98670.81;4998381;27;45309;-59
2023/03/08 06:28:21;;;;;;;;;9.75;9.75;;;;;7.73;62.01;98693.38;4998398;28;46540;-62
2023/03/08 06:30:50;;;;;;;;;7.75;5.75;;;;;7.73;61.77;98678.53;4998326;28;45235;-71
2023/03/08 06:33:16;;;;;;;;;8.00;8.00;;;;;7.76;62.04;98675.84;4998694;28;45386;-62
2023/03/08 06:35:41;;;;;;;;;10.00;10.00;;;;;7.82;61.64;98687.81;4998287;28;45280;-62
2023/03/08 06:38:06;;;;;;;;;10.00;9.00;;;;;7.86;62.06;98704.25;4998377;28;45346;-66
2023/03/08 06:40:32;;;;;;;;;13.75;10.50;;;;;7.89;61.95;98702.41;4998332;28;45232;-63
2023/03/08 06:42:57;;;;;;;;;9.50;9.50;;;;;7.90;61.98;98696.25;5013840;28;45252;-62
2023/03/08 06:45:23;;;;;;;;;9.75;9.75;;;;;7.93;62.01;98698.75;4998240;28;45414;-63
2023/03/08 06:47:48;;;;;;;;;10.00;9.50;;;;;7.97;62.12;98702.13;4998126;28;45427;-63
2023/03/08 06:50:13;;;;;;;;;13.75;9.75;;;;;7.96;61.98;98689.94;4997316;28;45242;-62
2023/03/08 06:52:39;;;;;;;;;9.75;7.00;;;;;7.99;62.14;98674.16;4998551;28;45294;-61
2023/03/08 06:55:05;;;;;;;;;8.00;8.00;;;;;8.06;62.32;98683.50;4998133;28;45236;-62
2023/03/08 06:57:31;;;;;;;;;9.75;9.75;;;;;8.07;62.11;98676.47;4998083;28;45394;-61
2023/03/08 06:59:56;;;;;;;;;5.00;5.00;;;;;8.17;62.16;98687.47;4998035;28;45274;-62
2023/03/08 07:02:21;;;;;;;;;6.75;6.75;;;;;8.19;62.06;98680.38;4998342;28;46439;-60
2023/03/08 07:04:47;;;;;;;;;9.00;7.50;;;;;8.25;62.51;98685.41;4997067;28;45584;-61
2023/03/08 07:07:12;;;;;;;;;8.75;5.75;;;;;8.26;62.40;98663.56;4998378;28;47290;-60
2023/03/08 07:09:37;;;;;;;;;15.75;11.75;;;;;8.33;62.02;98672.88;4996565;28;45283;-62
2023/03/08 07:12:03;;;;;;;;;6.00;5.00;;;;;8.38;62.42;98670.94;4998041;28;45283;-61
2023/03/08 07:14:28;;;;;;;;;6.00;6.00;;;;;8.43;62.54;98681.25;4994725;27;45708;-61
2023/03/08 07:16:54;;;;;;;;;6.75;4.00;;;;;8.50;62.70;98677.50;4993675;28;46052;-59
2023/03/08 07:19:19;;;;;;;;;4.00;2.75;;;;;8.55;62.66;98683.44;4997623;28;47691;-64
2023/03/08 07:21:44;;;;;;;;;4.00;4.00;;;;;8.59;62.81;98673.66;4997920;28;45706;-63
2023/03/08 07:24:10;;;;;;;;;3.00;3.00;;;;;8.67;62.92;98697.81;5012419;27;45736;-62
2023/03/08 07:26:35;;;;;;;;;2.25;2.25;;;;;8.75;62.69;98677.41;4997679;28;45373;-64
2023/03/08 07:29:01;;;;;;;;;4.50;3.50;;;;;8.82;63.03;98687.63;4997517;28;45360;-66
2023/03/08 07:31:27;;;;;;;;;4.00;4.00;;;;;8.91;62.93;98695.13;5013336;28;45412;-64
2023/03/08 07:33:53;;;;;;;;;2.00;1.00;;;;;8.97;63.07;98679.19;4997749;28;45634;-64
2023/03/08 07:36:19;;;;;;;;;3.00;2.75;;;;;9.04;63.02;98683.25;4997640;28;46069;-62
2023/03/08 07:38:45;;;;;;;;;2.75;2.75;;;;;9.13;63.46;98679.38;4998818;28;45460;-61
2023/03/08 07:41:11;;;;;;;;;5.25;5.00;;;;;9.23;63.48;98691.22;5017651;28;45379;-62
2023/03/08 07:43:37;;;;;;;;;5.75;5.25;;;;;9.30;63.48;98689.19;5013671;28;45384;-62
2023/03/08 07:46:03;;;;;;;;;4.25;4.25;;;;;9.38;63.60;98694.97;5012369;28;55291;-63
2023/03/08 07:48:30;;;;;;;;;2.50;2.50;;;;;9.44;63.52;98684.19;5010799;28;46178;-62
2023/03/08 07:51:06;;;;;;;;;4.00;3.00;;;;;9.49;63.42;98691.88;5017349;28;45324;-62
2023/03/08 07:53:32;;;;;;;;;2.25;1.50;;;;;9.57;63.65;98689.78;5015148;28;45611;-64
2023/03/08 07:55:58;;;;;;;;;4.75;3.00;;;;;9.62;63.85;98684.31;5016257;28;46291;-62
2023/03/08 07:58:24;;;;;;;;;3.75;2.25;;;;;9.71;63.87;98675.22;5011124;28;45222;-63
2023/03/08 08:00:49;;;;;;;;;3.50;3.50;;;;;9.78;64.00;98684.53;4984048;28;45261;-61
2023/03/08 08:03:14;;;;;;;;;4.50;4.00;;;;;9.80;64.04;98679.19;5007645;28;45573;-62
2023/03/08 08:05:40;;;;;;;;;4.75;4.75;;;;;9.91;63.87;98687.44;5006663;28;49513;-62
2023/03/08 08:08:05;;;;;;;;;3.50;3.50;;;;;9.98;63.95;98693.31;5003840;28;46987;-64
2023/03/08 08:10:30;;;;;;;;;3.75;3.75;;;;;10.04;63.83;98693.88;5003750;28;45409;-64
2023/03/08 08:12:56;;;;;;;;;4.00;4.00;;;;;10.09;63.86;98707.63;5001687;28;45369;-62
2023/03/08 08:15:24;;;;;;;;;2.50;2.50;;;;;10.13;63.76;98708.34;5003374;27;48431;-62
2023/03/08 08:17:49;;;;;;;;;4.25;4.25;;;;;10.20;64.23;98708.91;4993968;28;45420;-62
2023/03/08 08:20:15;;;;;;;;;3.00;3.00;;;;;10.28;63.91;98712.06;4997066;28;45498;-62
2023/03/08 08:22:40;;;;;;;;;4.75;4.25;;;;;10.25;63.93;98699.06;4996580;28;45536;-63
2023/03/08 08:25:07;;;;;;;;;5.75;3.00;;;;;10.41;64.03;98709.75;4996929;28;45336;-64
2023/03/08 08:27:35;;;;;;;;;3.00;3.00;;;;;10.47;64.02;98717.34;4996674;28;45320;-62
2023/03/08 08:30:01;;;;;;;;;3.00;3.00;;;;;10.52;64.08;98722.41;4996750;28;45352;-64
2023/03/08 08:32:26;;;;;;;;;4.25;2.00;;;;;10.57;63.66;98712.53;4995139;28;45169;-62
2023/03/08 08:34:52;;;;;;;;;3.00;3.00;;;;;10.54;64.11;98689.03;4987769;28;45459;-62
2023/03/08 08:37:17;;;;;;;;;5.75;3.50;;;;;10.66;64.17;98708.63;4996538;27;45542;-62
2023/03/08 08:39:43;;;;;;;;;16.25;15.50;;;;;10.75;64.22;98715.22;4996846;28;45440;-62
2023/03/08 08:42:08;;;;;;;;;4.50;4.50;;;;;10.79;64.08;98711.53;4996390;28;45435;-62
2023/03/08 08:44:33;;;;;;;;;6.50;5.75;;;;;10.86;64.13;98723.44;5011544;28;52514;-62
2023/03/08 08:46:58;;;;;;;;;3.25;3.25;;;;;10.88;64.26;98716.38;4996383;28;45347;-62
2023/03/08 08:49:24;;;;;;;;;3.50;3.50;;;;;10.94;64.29;98720.47;4996855;28;45488;-62
2023/03/08 08:51:49;;;;;;;;;3.75;3.00;;;;;10.98;64.22;98730.75;4996557;28;45432;-62
2023/03/08 08:54:15;;;;;;;;;3.00;2.75;;;;;11.05;64.31;98721.63;4996134;28;46322;-62
2023/03/08 08:56:41;;;;;;;;;3.25;3.00;;;;;11.06;64.20;98725.97;4996054;28;45348;-62
2023/03/08 08:59:09;;;;;;;;;3.00;3.00;;;;;11.10;64.15;98734.56;4996492;28;45363;-62
2023/03/08 09:01:35;;;;;;;;;3.75;3.00;;;;;11.20;64.30;98716.56;5007211;28;45576;-62
2023/03/08 09:04:01;;;;;;;;;3.00;3.00;;;;;11.21;64.26;98718.28;5005972;28;45261;-62
2023/03/08 09:06:28;;;;;;;;;1.00;1.00;;;;;11.22;64.08;98722.63;4993509;28;45145;-64
2023/03/08 09:08:57;;;;;;;;;5.75;2.50;;;;;11.30;64.41;98730.13;4996432;28;45374;-64
2023/03/08 09:11:24;;;;;;;;;3.25;2.25;;;;;11.29;64.33;98731.03;5000266;28;45456;-65
2023/03/08 09:13:50;;;;;;;;;2.00;2.00;;;;;11.35;64.32;98730.75;5005778;27;47499;-63
2023/03/08 09:16:19;;;;;;;;;0.25;0.25;;;;;11.36;64.26;98733.28;4986110;27;45299;-65
2023/03/08 09:18:44;;;;;;;;;1.50;1.50;;;;;11.41;64.55;98719.06;4999853;28;45336;-61
2023/03/08 09:21:10;;;;;;;;;3.00;1.75;;;;;11.44;64.63;98721.53;4999218;28;45401;-62
2023/03/08 09:23:35;;;;;;;;;1.00;1.00;;;;;11.43;64.45;98706.69;4999178;27;45311;-62
2023/03/08 09:26:01;;;;;;;;;2.25;1.75;;;;;11.48;64.61;98728.34;5014403;28;45334;-62
2023/03/08 09:28:26;;;;;;;;;2.75;2.00;;;;;11.55;64.64;98727.97;4999394;28;45315;-62
2023/03/08 09:30:52;;;;;;;;;1.00;1.00;;;;;11.58;64.68;98734.84;4999219;28;45362;-62
2023/03/08 09:33:17;;;;;;;;;3.50;2.00;;;;;11.67;64.74;98733.53;4999054;28;45517;-62
2023/03/08 09:35:42;;;;;;;;;3.00;1.75;;;;;11.69;64.70;98736.94;4999158;28;45219;-62
2023/03/08 09:38:07;;;;;;;;;4.50;2.00;;;;;11.73;64.65;98732.38;5008296;28;45304;-62
2023/03/08 09:40:47;;;;;;;;;3.00;2.50;;;;;11.75;64.68;98741.03;4998980;28;45318;-62
2023/03/08 09:43:24;;;;;;;;;4.25;2.00;;;;;11.79;64.66;98739.97;4997558;28;47386;-62
2023/03/08 09:45:53;;;;;;;;;2.00;2.00;;;;;11.86;64.77;98750.09;4999066;27;45452;-62
2023/03/08 09:48:29;;;;;;;;;1.00;1.00;;;;;11.87;64.97;98743.03;4998935;27;45349;-62
2023/03/08 09:51:03;;;;;;;;;0.00;0.00;;;;;11.90;64.93;98742.03;4999123;28;45386;-62
2023/03/08 09:53:59;;;;;;;;;2.75;2.00;;;;;11.98;64.80;98751.25;4998957;28;45192;-63
2023/03/08 09:56:34;;;;;;;;;3.00;3.00;;;;;11.98;65.01;98739.91;4998745;28;45350;-62
2023/03/08 09:59:29;;;;;;;;;3.00;3.00;;;;;12.05;64.79;98737.78;4999124;28;45238;-62
2023/03/08 10:02:19;;;;;;;;;3.00;2.00;;;;;12.05;64.82;98729.88;4998370;28;45386;-62
2023/03/08 10:04:50;;;;;;;;;2.00;2.00;;;;;12.18;64.90;98744.13;4998796;28;46347;-63
2023/03/08 10:07:37;;;;;;;;;2.00;2.00;;;;;12.26;64.77;98754.25;4999025;28;45305;-63
2023/03/08 10:10:11;;;;;;;;;5.00;2.50;;;;;12.31;65.37;98761.00;4998700;28;45452;-63
2023/03/08 10:13:19;;;;;;;;;2.00;1.50;;;;;12.40;64.99;98751.75;4998592;28;45185;-63
2023/03/08 10:15:50;;;;;;;;;2.25;2.00;;;;;12.46;64.91;98776.91;4967275;28;46611;-63
2023/03/08 10:18:43;;;;;;;;;2.25;2.25;;;;;12.54;65.10;98763.31;4997640;27;45331;-63
2023/03/08 10:21:18;;;;;;;;;1.00;1.00;;;;;12.58;64.75;98764.84;4998599;28;45386;-63
2023/03/08 10:23:57;;;;;;;;;4.00;3.00;;;;;12.64;64.77;98765.38;4998117;27;45421;-63
2023/03/08 10:26:25;;;;;;;;;5.75;1.75;;;;;12.71;64.74;98770.31;4997749;28;45466;-63
2023/03/08 10:28:51;;;;;;;;;2.50;2.50;;;;;12.76;64.67;98770.91;4998351;28;45240;-63
2023/03/08 10:31:29;;;;;;;;;2.00;2.00;;;;;12.77;64.73;98770.81;4998919;28;45303;-63
2023/03/08 10:34:02;;;;;;;;;4.75;1.75;;;;;12.80;64.80;98764.53;4998641;28;45285;-65
2023/03/08 10:36:28;;;;;;;;;1.25;1.25;;;;;12.81;64.63;98766.25;4998523;28;45228;-63
2023/03/08 10:39:05;;;;;;;;;7.00;6.75;;;;;12.80;64.72;98775.94;4998166;28;45209;-63
2023/03/08 10:41:38;;;;;;;;;2.00;1.25;;;;;12.84;64.85;98780.09;4998640;28;45169;-64
2023/03/08 10:44:04;;;;;;;;;2.00;0.75;;;;;12.88;64.57;98787.84;4998261;28;45395;-64
2023/03/08 10:46:31;;;;;;;;;2.00;1.00;;;;;12.87;64.92;98779.09;4998155;28;46078;-65
2023/03/08 10:49:16;;;;;;;;;1.75;1.00;;;;;12.84;64.65;98779.25;4998177;28;45493;-65
2023/03/08 10:51:55;;;;;;;;;0.25;0.25;;;;;12.84;64.94;98787.16;4998341;28;45294;-66
2023/03/08 10:54:20;;;;;;;;;2.75;2.00;;;;;12.83;64.33;98794.22;4998227;28;45457;-66
2023/03/08 10:57:01;;;;;;;;;1.25;1.25;;;;;12.79;64.85;98783.91;4997800;28;46130;-66
2023/03/08 10:59:35;;;;;;;;;7.00;3.00;;;;;12.82;64.63;98795.16;4998318;28;45348;-66
2023/03/08 11:02:17;;;;;;;;;5.50;3.00;;;;;12.83;64.58;98801.28;4985889;28;45163;-66
2023/03/08 11:04:58;;;;;;;;;3.25;2.75;;;;;12.86;64.84;98800.28;4997028;28;45324;-66
2023/03/08 11:07:28;;;;;;;;;2.50;2.50;;;;;12.86;64.68;98793.19;4998216;28;46362;-66
2023/03/08 11:10:11;;;;;;;;;6.50;4.50;;;;;12.89;64.79;98794.81;4996554;28;45287;-64
2023/03/08 11:12:37;;;;;;;;;3.00;3.00;;;;;12.90;64.69;98789.44;4997999;28;45334;-66
2023/03/08 11:15:20;;;;;;;;;3.00;3.00;;;;;12.92;64.96;98774.41;4992143;27;45232;-66
2023/03/08 11:17:51;;;;;;;;;4.00;2.00;;;;;12.98;64.38;98774.06;4993170;27;45448;-67
2023/03/08 11:20:26;;;;;;;;;2.00;1.75;;;;;13.03;65.08;98796.69;4997926;28;45270;-69
2023/03/08 11:23:00;;;;;;;;;0.75;0.00;;;;;13.09;64.93;98791.06;4997669;28;45305;-65
2023/03/08 11:25:29;;;;;;;;;0.25;0.25;;;;;13.11;64.64;98787.41;4996757;28;45343;-66
2023/03/08 11:28:12;;;;;;;;;0.00;0.00;;;;;13.08;64.70;98789.38;4996123;28;45470;-67
2023/03/08 11:30:47;;;;;;;;;1.75;0.00;;;;;13.11;64.72;98784.78;4997717;28;45430;-64
2023/03/08 11:33:35;;;;;;;;;0.00;0.00;;;;;13.12;65.14;98786.50;4998084;28;45360;-66